sensor_id;sensor_type;location;lat;lon;timestamp;P1;durP1;ratioP1;P2;durP2;ratioP2
75682;SDS011;64295;44.772;39.872;2023-08-01T00:02:14;4.35;;;1.80;;
75682;SDS011;64295;44.772;39.872;2023-08-01T00:04:39;4.05;;;2.58;;
75682;SDS011;64295;44.772;39.872;2023-08-01T00:07:05;6.25;;;2.22;;
75682;SDS011;64295;44.772;39.872;2023-08-01T00:09:31;5.00;;;2.55;;
75682;SDS011;64295;44.772;39.872;2023-08-01T00:11:59;2.80;;;2.03;;
75682;SDS011;64295;44.772;39.872;2023-08-01T00:14:25;4.90;;;2.30;;
75682;SDS011;64295;44.772;39.872;2023-08-01T00:16:51;7.13;;;2.10;;
75682;SDS011;64295;44.772;39.872;2023-08-01T00:19:17;3.70;;;1.98;;
75682;SDS011;64295;44.772;39.872;2023-08-01T00:21:43;4.10;;;2.15;;
75682;SDS011;64295;44.772;39.872;2023-08-01T00:24:09;4.68;;;2.20;;
75682;SDS011;64295;44.772;39.872;2023-08-01T00:26:35;6.53;;;2.08;;
75682;SDS011;64295;44.772;39.872;2023-08-01T00:29:01;2.70;;;1.73;;
75682;SDS011;64295;44.772;39.872;2023-08-01T00:31:27;3.88;;;2.08;;
75682;SDS011;64295;44.772;39.872;2023-08-01T00:33:55;3.15;;;2.30;;
75682;SDS011;64295;44.772;39.872;2023-08-01T00:36:21;5.72;;;2.13;;
75682;SDS011;64295;44.772;39.872;2023-08-01T00:38:47;2.88;;;1.80;;
75682;SDS011;64295;44.772;39.872;2023-08-01T00:41:14;3.47;;;1.50;;
75682;SDS011;64295;44.772;39.872;2023-08-01T00:43:40;3.88;;;1.80;;
75682;SDS011;64295;44.772;39.872;2023-08-01T00:46:06;4.43;;;2.53;;
75682;SDS011;64295;44.772;39.872;2023-08-01T00:48:33;4.70;;;2.15;;
75682;SDS011;64295;44.772;39.872;2023-08-01T00:50:59;4.72;;;2.28;;
75682;SDS011;64295;44.772;39.872;2023-08-01T00:53:30;2.63;;;1.63;;
75682;SDS011;64295;44.772;39.872;2023-08-01T00:55:56;3.70;;;2.00;;
75682;SDS011;64295;44.772;39.872;2023-08-01T00:58:24;4.95;;;1.98;;
75682;SDS011;64295;44.772;39.872;2023-08-01T01:00:50;4.03;;;1.95;;
75682;SDS011;64295;44.772;39.872;2023-08-01T01:03:16;3.28;;;2.03;;
75682;SDS011;64295;44.772;39.872;2023-08-01T01:05:47;3.15;;;2.03;;
75682;SDS011;64295;44.772;39.872;2023-08-01T01:08:31;3.03;;;2.05;;
75682;SDS011;64295;44.772;39.872;2023-08-01T01:10:57;5.57;;;2.72;;
75682;SDS011;64295;44.772;39.872;2023-08-01T01:13:23;2.92;;;2.25;;
75682;SDS011;64295;44.772;39.872;2023-08-01T01:15:49;5.57;;;2.60;;
75682;SDS011;64295;44.772;39.872;2023-08-01T01:18:15;3.28;;;1.90;;
75682;SDS011;64295;44.772;39.872;2023-08-01T01:20:41;3.70;;;2.28;;
75682;SDS011;64295;44.772;39.872;2023-08-01T01:23:07;3.83;;;2.30;;
75682;SDS011;64295;44.772;39.872;2023-08-01T01:25:34;3.40;;;1.90;;
75682;SDS011;64295;44.772;39.872;2023-08-01T01:28:02;6.07;;;2.08;;
75682;SDS011;64295;44.772;39.872;2023-08-01T01:30:30;3.60;;;1.95;;
75682;SDS011;64295;44.772;39.872;2023-08-01T01:32:59;4.63;;;2.10;;
75682;SDS011;64295;44.772;39.872;2023-08-01T01:35:26;3.00;;;2.20;;
75682;SDS011;64295;44.772;39.872;2023-08-01T01:37:52;5.22;;;2.70;;
75682;SDS011;64295;44.772;39.872;2023-08-01T01:40:17;4.05;;;2.65;;
75682;SDS011;64295;44.772;39.872;2023-08-01T01:42:43;3.42;;;2.58;;
75682;SDS011;64295;44.772;39.872;2023-08-01T01:45:09;3.33;;;2.15;;
75682;SDS011;64295;44.772;39.872;2023-08-01T01:47:36;4.95;;;2.67;;
75682;SDS011;64295;44.772;39.872;2023-08-01T01:50:02;3.90;;;2.10;;
75682;SDS011;64295;44.772;39.872;2023-08-01T01:52:28;5.78;;;2.20;;
75682;SDS011;64295;44.772;39.872;2023-08-01T01:54:54;6.28;;;2.22;;
75682;SDS011;64295;44.772;39.872;2023-08-01T01:57:20;3.22;;;2.58;;
75682;SDS011;64295;44.772;39.872;2023-08-01T01:59:46;4.68;;;2.47;;
75682;SDS011;64295;44.772;39.872;2023-08-01T02:02:12;4.18;;;1.92;;
75682;SDS011;64295;44.772;39.872;2023-08-01T02:04:38;4.60;;;2.00;;
75682;SDS011;64295;44.772;39.872;2023-08-01T02:07:04;2.10;;;1.90;;
75682;SDS011;64295;44.772;39.872;2023-08-01T02:09:30;4.60;;;1.98;;
75682;SDS011;64295;44.772;39.872;2023-08-01T02:11:56;3.67;;;2.40;;
75682;SDS011;64295;44.772;39.872;2023-08-01T02:14:23;4.32;;;3.10;;
75682;SDS011;64295;44.772;39.872;2023-08-01T02:16:49;3.85;;;2.60;;
75682;SDS011;64295;44.772;39.872;2023-08-01T02:19:15;6.63;;;2.08;;
75682;SDS011;64295;44.772;39.872;2023-08-01T02:21:40;6.18;;;2.17;;
75682;SDS011;64295;44.772;39.872;2023-08-01T02:24:06;3.95;;;2.42;;
75682;SDS011;64295;44.772;39.872;2023-08-01T02:26:32;4.03;;;2.17;;
75682;SDS011;64295;44.772;39.872;2023-08-01T02:28:58;4.65;;;2.38;;
75682;SDS011;64295;44.772;39.872;2023-08-01T02:31:24;3.88;;;2.53;;
75682;SDS011;64295;44.772;39.872;2023-08-01T02:33:50;4.85;;;2.55;;
75682;SDS011;64295;44.772;39.872;2023-08-01T02:36:16;3.53;;;2.00;;
75682;SDS011;64295;44.772;39.872;2023-08-01T02:38:41;4.60;;;2.83;;
75682;SDS011;64295;44.772;39.872;2023-08-01T02:41:07;2.20;;;1.88;;
75682;SDS011;64295;44.772;39.872;2023-08-01T02:43:33;3.10;;;2.63;;
75682;SDS011;64295;44.772;39.872;2023-08-01T02:46:01;4.57;;;2.13;;
75682;SDS011;64295;44.772;39.872;2023-08-01T02:48:27;8.13;;;2.35;;
75682;SDS011;64295;44.772;39.872;2023-08-01T02:50:53;5.85;;;2.30;;
75682;SDS011;64295;44.772;39.872;2023-08-01T02:53:19;4.15;;;2.20;;
75682;SDS011;64295;44.772;39.872;2023-08-01T02:55:45;7.47;;;2.10;;
75682;SDS011;64295;44.772;39.872;2023-08-01T02:58:14;4.93;;;2.17;;
75682;SDS011;64295;44.772;39.872;2023-08-01T03:00:39;3.72;;;2.38;;
75682;SDS011;64295;44.772;39.872;2023-08-01T03:03:06;5.82;;;2.40;;
75682;SDS011;64295;44.772;39.872;2023-08-01T03:05:32;6.28;;;2.22;;
75682;SDS011;64295;44.772;39.872;2023-08-01T03:08:00;6.18;;;2.35;;
75682;SDS011;64295;44.772;39.872;2023-08-01T03:10:26;3.70;;;2.42;;
75682;SDS011;64295;44.772;39.872;2023-08-01T03:12:52;4.45;;;2.80;;
75682;SDS011;64295;44.772;39.872;2023-08-01T03:15:19;5.25;;;2.95;;
75682;SDS011;64295;44.772;39.872;2023-08-01T03:17:45;4.88;;;2.35;;
75682;SDS011;64295;44.772;39.872;2023-08-01T03:20:10;3.90;;;2.70;;
75682;SDS011;64295;44.772;39.872;2023-08-01T03:22:38;3.17;;;2.42;;
75682;SDS011;64295;44.772;39.872;2023-08-01T03:25:05;4.60;;;2.63;;
75682;SDS011;64295;44.772;39.872;2023-08-01T03:27:33;5.28;;;2.75;;
75682;SDS011;64295;44.772;39.872;2023-08-01T03:29:59;8.55;;;3.35;;
75682;SDS011;64295;44.772;39.872;2023-08-01T03:32:25;5.47;;;3.33;;
75682;SDS011;64295;44.772;39.872;2023-08-01T03:34:51;5.63;;;2.63;;
75682;SDS011;64295;44.772;39.872;2023-08-01T03:37:17;3.30;;;2.28;;
75682;SDS011;64295;44.772;39.872;2023-08-01T03:39:43;5.07;;;3.25;;
75682;SDS011;64295;44.772;39.872;2023-08-01T03:42:09;5.40;;;2.83;;
75682;SDS011;64295;44.772;39.872;2023-08-01T03:44:35;8.60;;;3.20;;
75682;SDS011;64295;44.772;39.872;2023-08-01T03:47:01;3.95;;;3.20;;
75682;SDS011;64295;44.772;39.872;2023-08-01T03:49:27;6.55;;;3.10;;
75682;SDS011;64295;44.772;39.872;2023-08-01T03:51:53;4.53;;;2.50;;
75682;SDS011;64295;44.772;39.872;2023-08-01T03:54:19;6.70;;;3.00;;
75682;SDS011;64295;44.772;39.872;2023-08-01T03:56:46;5.45;;;3.15;;
75682;SDS011;64295;44.772;39.872;2023-08-01T03:59:13;4.18;;;2.67;;
75682;SDS011;64295;44.772;39.872;2023-08-01T04:01:40;10.25;;;3.50;;
75682;SDS011;64295;44.772;39.872;2023-08-01T04:04:07;4.78;;;2.65;;
75682;SDS011;64295;44.772;39.872;2023-08-01T04:06:34;7.95;;;3.35;;
75682;SDS011;64295;44.772;39.872;2023-08-01T04:09:00;6.88;;;3.58;;
75682;SDS011;64295;44.772;39.872;2023-08-01T04:11:26;5.15;;;2.70;;
75682;SDS011;64295;44.772;39.872;2023-08-01T04:13:52;5.80;;;3.67;;
75682;SDS011;64295;44.772;39.872;2023-08-01T04:16:19;8.07;;;3.42;;
75682;SDS011;64295;44.772;39.872;2023-08-01T04:18:45;8.85;;;3.67;;
75682;SDS011;64295;44.772;39.872;2023-08-01T04:21:13;5.47;;;3.05;;
75682;SDS011;64295;44.772;39.872;2023-08-01T04:26:05;6.53;;;2.92;;
75682;SDS011;64295;44.772;39.872;2023-08-01T04:28:32;4.63;;;3.55;;
75682;SDS011;64295;44.772;39.872;2023-08-01T04:30:59;10.95;;;4.00;;
75682;SDS011;64295;44.772;39.872;2023-08-01T04:33:25;5.88;;;3.58;;
75682;SDS011;64295;44.772;39.872;2023-08-01T04:35:51;7.18;;;3.65;;
75682;SDS011;64295;44.772;39.872;2023-08-01T04:38:17;14.20;;;4.60;;
75682;SDS011;64295;44.772;39.872;2023-08-01T04:40:43;5.22;;;3.10;;
75682;SDS011;64295;44.772;39.872;2023-08-01T04:43:09;6.95;;;3.92;;
75682;SDS011;64295;44.772;39.872;2023-08-01T04:45:35;8.98;;;3.50;;
75682;SDS011;64295;44.772;39.872;2023-08-01T04:48:01;5.22;;;3.42;;
75682;SDS011;64295;44.772;39.872;2023-08-01T04:50:27;10.32;;;4.00;;
75682;SDS011;64295;44.772;39.872;2023-08-01T04:52:53;5.75;;;3.05;;
75682;SDS011;64295;44.772;39.872;2023-08-01T04:55:19;7.07;;;4.30;;
75682;SDS011;64295;44.772;39.872;2023-08-01T04:57:45;12.75;;;5.10;;
75682;SDS011;64295;44.772;39.872;2023-08-01T05:00:11;10.15;;;4.53;;
75682;SDS011;64295;44.772;39.872;2023-08-01T05:02:37;14.60;;;5.07;;
75682;SDS011;64295;44.772;39.872;2023-08-01T05:05:03;7.07;;;5.22;;
75682;SDS011;64295;44.772;39.872;2023-08-01T05:07:30;9.90;;;6.20;;
75682;SDS011;64295;44.772;39.872;2023-08-01T05:09:56;9.90;;;6.32;;
75682;SDS011;64295;44.772;39.872;2023-08-01T05:12:22;8.95;;;5.85;;
75682;SDS011;64295;44.772;39.872;2023-08-01T05:14:48;8.18;;;5.10;;
75682;SDS011;64295;44.772;39.872;2023-08-01T05:17:14;18.88;;;5.10;;
75682;SDS011;64295;44.772;39.872;2023-08-01T05:19:39;8.25;;;3.65;;
75682;SDS011;64295;44.772;39.872;2023-08-01T05:22:05;8.65;;;3.53;;
75682;SDS011;64295;44.772;39.872;2023-08-01T05:24:31;7.45;;;5.68;;
75682;SDS011;64295;44.772;39.872;2023-08-01T05:26:57;10.68;;;4.57;;
75682;SDS011;64295;44.772;39.872;2023-08-01T05:29:23;4.40;;;3.45;;
75682;SDS011;64295;44.772;39.872;2023-08-01T05:31:49;11.20;;;4.88;;
75682;SDS011;64295;44.772;39.872;2023-08-01T05:34:15;4.30;;;3.45;;
75682;SDS011;64295;44.772;39.872;2023-08-01T05:36:40;7.60;;;4.78;;
75682;SDS011;64295;44.772;39.872;2023-08-01T05:39:06;6.15;;;3.42;;
75682;SDS011;64295;44.772;39.872;2023-08-01T05:41:32;5.50;;;3.55;;
75682;SDS011;64295;44.772;39.872;2023-08-01T05:43:58;7.63;;;3.42;;
75682;SDS011;64295;44.772;39.872;2023-08-01T05:46:24;8.05;;;3.78;;
75682;SDS011;64295;44.772;39.872;2023-08-01T05:48:51;7.45;;;3.38;;
75682;SDS011;64295;44.772;39.872;2023-08-01T05:51:17;4.68;;;3.50;;
75682;SDS011;64295;44.772;39.872;2023-08-01T05:53:43;9.45;;;3.50;;
75682;SDS011;64295;44.772;39.872;2023-08-01T05:56:08;6.10;;;3.38;;
75682;SDS011;64295;44.772;39.872;2023-08-01T05:58:35;5.35;;;3.28;;
75682;SDS011;64295;44.772;39.872;2023-08-01T06:01:00;3.55;;;2.75;;
75682;SDS011;64295;44.772;39.872;2023-08-01T06:03:26;5.43;;;3.13;;
75682;SDS011;64295;44.772;39.872;2023-08-01T06:05:52;5.55;;;3.40;;
75682;SDS011;64295;44.772;39.872;2023-08-01T06:08:18;6.72;;;3.03;;
75682;SDS011;64295;44.772;39.872;2023-08-01T06:10:44;5.97;;;3.38;;
75682;SDS011;64295;44.772;39.872;2023-08-01T06:13:10;6.50;;;3.63;;
75682;SDS011;64295;44.772;39.872;2023-08-01T06:15:36;6.03;;;2.72;;
75682;SDS011;64295;44.772;39.872;2023-08-01T06:18:02;6.15;;;3.15;;
75682;SDS011;64295;44.772;39.872;2023-08-01T06:20:28;7.63;;;4.28;;
75682;SDS011;64295;44.772;39.872;2023-08-01T06:22:54;7.47;;;4.40;;
75682;SDS011;64295;44.772;39.872;2023-08-01T06:25:20;4.65;;;3.55;;
75682;SDS011;64295;44.772;39.872;2023-08-01T06:27:45;11.05;;;2.90;;
75682;SDS011;64295;44.772;39.872;2023-08-01T06:30:11;6.15;;;3.83;;
75682;SDS011;64295;44.772;39.872;2023-08-01T06:32:37;7.25;;;3.28;;
75682;SDS011;64295;44.772;39.872;2023-08-01T06:35:03;9.35;;;3.95;;
75682;SDS011;64295;44.772;39.872;2023-08-01T06:37:29;5.72;;;3.35;;
75682;SDS011;64295;44.772;39.872;2023-08-01T06:39:57;8.88;;;3.60;;
75682;SDS011;64295;44.772;39.872;2023-08-01T06:42:23;5.13;;;3.33;;
75682;SDS011;64295;44.772;39.872;2023-08-01T06:44:49;4.82;;;3.00;;
75682;SDS011;64295;44.772;39.872;2023-08-01T06:47:15;6.80;;;3.03;;
75682;SDS011;64295;44.772;39.872;2023-08-01T06:49:41;3.60;;;2.60;;
75682;SDS011;64295;44.772;39.872;2023-08-01T06:52:07;4.28;;;2.90;;
75682;SDS011;64295;44.772;39.872;2023-08-01T06:54:33;9.20;;;3.80;;
75682;SDS011;64295;44.772;39.872;2023-08-01T06:56:58;6.30;;;3.20;;
75682;SDS011;64295;44.772;39.872;2023-08-01T06:59:25;4.72;;;2.80;;
75682;SDS011;64295;44.772;39.872;2023-08-01T07:01:51;9.52;;;3.60;;
75682;SDS011;64295;44.772;39.872;2023-08-01T07:04:17;5.05;;;2.90;;
75682;SDS011;64295;44.772;39.872;2023-08-01T07:06:43;6.22;;;3.92;;
75682;SDS011;64295;44.772;39.872;2023-08-01T07:09:09;4.72;;;3.15;;
75682;SDS011;64295;44.772;39.872;2023-08-01T07:11:35;7.68;;;3.60;;
75682;SDS011;64295;44.772;39.872;2023-08-01T07:14:01;5.72;;;3.88;;
75682;SDS011;64295;44.772;39.872;2023-08-01T07:16:27;8.73;;;3.83;;
75682;SDS011;64295;44.772;39.872;2023-08-01T07:18:54;6.10;;;2.80;;
75682;SDS011;64295;44.772;39.872;2023-08-01T07:21:20;8.02;;;3.40;;
75682;SDS011;64295;44.772;39.872;2023-08-01T07:23:46;5.70;;;2.70;;
75682;SDS011;64295;44.772;39.872;2023-08-01T07:26:13;7.75;;;3.50;;
75682;SDS011;64295;44.772;39.872;2023-08-01T07:28:41;7.03;;;2.60;;
75682;SDS011;64295;44.772;39.872;2023-08-01T07:31:07;6.82;;;2.20;;
75682;SDS011;64295;44.772;39.872;2023-08-01T07:33:35;5.35;;;2.90;;
75682;SDS011;64295;44.772;39.872;2023-08-01T07:36:02;8.10;;;2.70;;
75682;SDS011;64295;44.772;39.872;2023-08-01T07:38:28;3.85;;;2.47;;
75682;SDS011;64295;44.772;39.872;2023-08-01T07:40:54;4.53;;;2.60;;
75682;SDS011;64295;44.772;39.872;2023-08-01T07:43:20;4.38;;;2.47;;
75682;SDS011;64295;44.772;39.872;2023-08-01T07:45:46;5.32;;;2.35;;
75682;SDS011;64295;44.772;39.872;2023-08-01T07:48:15;3.03;;;2.20;;
75682;SDS011;64295;44.772;39.872;2023-08-01T07:50:41;3.40;;;2.35;;
75682;SDS011;64295;44.772;39.872;2023-08-01T07:53:07;3.35;;;2.38;;
75682;SDS011;64295;44.772;39.872;2023-08-01T07:55:33;3.25;;;2.47;;
75682;SDS011;64295;44.772;39.872;2023-08-01T07:58:00;3.08;;;2.38;;
75682;SDS011;64295;44.772;39.872;2023-08-01T08:00:26;5.22;;;2.22;;
75682;SDS011;64295;44.772;39.872;2023-08-01T08:02:53;4.82;;;2.50;;
75682;SDS011;64295;44.772;39.872;2023-08-01T08:05:19;6.35;;;2.42;;
75682;SDS011;64295;44.772;39.872;2023-08-01T08:07:45;3.72;;;2.50;;
75682;SDS011;64295;44.772;39.872;2023-08-01T08:10:10;4.63;;;2.83;;
75682;SDS011;64295;44.772;39.872;2023-08-01T08:12:36;6.05;;;2.33;;
75682;SDS011;64295;44.772;39.872;2023-08-01T08:15:02;2.97;;;2.33;;
75682;SDS011;64295;44.772;39.872;2023-08-01T08:17:29;4.85;;;2.25;;
75682;SDS011;64295;44.772;39.872;2023-08-01T08:19:55;3.72;;;2.38;;
75682;SDS011;64295;44.772;39.872;2023-08-01T08:22:20;4.63;;;2.17;;
75682;SDS011;64295;44.772;39.872;2023-08-01T08:24:46;4.25;;;3.08;;
75682;SDS011;64295;44.772;39.872;2023-08-01T08:27:13;2.75;;;2.47;;
75682;SDS011;64295;44.772;39.872;2023-08-01T08:29:39;3.30;;;2.60;;
75682;SDS011;64295;44.772;39.872;2023-08-01T08:32:05;3.30;;;2.45;;
75682;SDS011;64295;44.772;39.872;2023-08-01T08:34:31;7.38;;;2.78;;
75682;SDS011;64295;44.772;39.872;2023-08-01T08:36:57;6.60;;;3.05;;
75682;SDS011;64295;44.772;39.872;2023-08-01T08:39:23;3.83;;;2.90;;
75682;SDS011;64295;44.772;39.872;2023-08-01T08:41:51;4.13;;;2.13;;
75682;SDS011;64295;44.772;39.872;2023-08-01T08:46:53;3.70;;;1.92;;
75682;SDS011;64295;44.772;39.872;2023-08-01T08:49:20;2.92;;;1.80;;
75682;SDS011;64295;44.772;39.872;2023-08-01T08:51:47;5.90;;;2.60;;
75682;SDS011;64295;44.772;39.872;2023-08-01T08:54:15;2.65;;;2.15;;
75682;SDS011;64295;44.772;39.872;2023-08-01T08:56:42;3.95;;;2.95;;
75682;SDS011;64295;44.772;39.872;2023-08-01T08:59:08;4.05;;;2.15;;
75682;SDS011;64295;44.772;39.872;2023-08-01T09:01:38;6.72;;;2.80;;
75682;SDS011;64295;44.772;39.872;2023-08-01T09:04:05;2.80;;;1.95;;
75682;SDS011;64295;44.772;39.872;2023-08-01T09:06:32;2.50;;;2.22;;
75682;SDS011;64295;44.772;39.872;2023-08-01T09:09:12;4.82;;;2.38;;
75682;SDS011;64295;44.772;39.872;2023-08-01T09:11:51;3.80;;;2.30;;
75682;SDS011;64295;44.772;39.872;2023-08-01T09:14:18;5.70;;;2.72;;
75682;SDS011;64295;44.772;39.872;2023-08-01T09:16:45;5.38;;;2.70;;
75682;SDS011;64295;44.772;39.872;2023-08-01T09:19:16;3.55;;;2.40;;
75682;SDS011;64295;44.772;39.872;2023-08-01T09:21:43;6.43;;;2.72;;
75682;SDS011;64295;44.772;39.872;2023-08-01T09:27:21;3.47;;;2.58;;
75682;SDS011;64295;44.772;39.872;2023-08-01T09:29:50;4.25;;;2.40;;
75682;SDS011;64295;44.772;39.872;2023-08-01T09:32:16;4.93;;;2.40;;
75682;SDS011;64295;44.772;39.872;2023-08-01T09:34:43;3.58;;;2.63;;
75682;SDS011;64295;44.772;39.872;2023-08-01T09:37:09;3.78;;;2.28;;
75682;SDS011;64295;44.772;39.872;2023-08-01T09:39:35;2.63;;;2.00;;
75682;SDS011;64295;44.772;39.872;2023-08-01T09:42:01;3.30;;;2.40;;
75682;SDS011;64295;44.772;39.872;2023-08-01T09:44:28;4.15;;;2.25;;
75682;SDS011;64295;44.772;39.872;2023-08-01T09:47:02;4.32;;;2.38;;
75682;SDS011;64295;44.772;39.872;2023-08-01T09:49:29;6.38;;;2.22;;
75682;SDS011;64295;44.772;39.872;2023-08-01T09:51:56;3.63;;;2.30;;
75682;SDS011;64295;44.772;39.872;2023-08-01T09:54:23;5.90;;;2.40;;
75682;SDS011;64295;44.772;39.872;2023-08-01T09:56:49;5.43;;;2.72;;
75682;SDS011;64295;44.772;39.872;2023-08-01T09:59:23;3.78;;;2.42;;
75682;SDS011;64295;44.772;39.872;2023-08-01T10:01:51;4.57;;;2.65;;
75682;SDS011;64295;44.772;39.872;2023-08-01T10:04:29;5.07;;;2.28;;
75682;SDS011;64295;44.772;39.872;2023-08-01T10:06:59;3.10;;;2.28;;
75682;SDS011;64295;44.772;39.872;2023-08-01T10:09:32;3.25;;;2.05;;
75682;SDS011;64295;44.772;39.872;2023-08-01T10:12:00;5.00;;;2.65;;
75682;SDS011;64295;44.772;39.872;2023-08-01T10:14:27;3.40;;;2.20;;
75682;SDS011;64295;44.772;39.872;2023-08-01T10:16:54;5.10;;;2.25;;
75682;SDS011;64295;44.772;39.872;2023-08-01T10:19:21;2.78;;;2.50;;
75682;SDS011;64295;44.772;39.872;2023-08-01T10:21:47;5.15;;;2.42;;
75682;SDS011;64295;44.772;39.872;2023-08-01T10:24:14;4.25;;;2.35;;
75682;SDS011;64295;44.772;39.872;2023-08-01T10:26:40;2.95;;;2.25;;
75682;SDS011;64295;44.772;39.872;2023-08-01T10:29:09;4.65;;;2.63;;
75682;SDS011;64295;44.772;39.872;2023-08-01T10:31:35;2.60;;;2.25;;
75682;SDS011;64295;44.772;39.872;2023-08-01T10:34:06;3.20;;;2.05;;
75682;SDS011;64295;44.772;39.872;2023-08-01T10:36:38;2.65;;;2.13;;
75682;SDS011;64295;44.772;39.872;2023-08-01T10:39:04;3.22;;;2.17;;
75682;SDS011;64295;44.772;39.872;2023-08-01T10:41:31;3.78;;;2.42;;
75682;SDS011;64295;44.772;39.872;2023-08-01T10:44:12;10.15;;;3.38;;
75682;SDS011;64295;44.772;39.872;2023-08-01T10:49:11;4.13;;;2.45;;
75682;SDS011;64295;44.772;39.872;2023-08-01T10:51:37;2.40;;;2.20;;
75682;SDS011;64295;44.772;39.872;2023-08-01T10:54:03;4.32;;;2.50;;
75682;SDS011;64295;44.772;39.872;2023-08-01T10:56:29;5.82;;;2.40;;
75682;SDS011;64295;44.772;39.872;2023-08-01T10:58:57;4.82;;;2.38;;
75682;SDS011;64295;44.772;39.872;2023-08-01T11:01:24;3.85;;;2.95;;
75682;SDS011;64295;44.772;39.872;2023-08-01T11:03:51;3.03;;;2.67;;
75682;SDS011;64295;44.772;39.872;2023-08-01T11:06:17;9.25;;;2.72;;
75682;SDS011;64295;44.772;39.872;2023-08-01T11:08:44;5.00;;;2.88;;
75682;SDS011;64295;44.772;39.872;2023-08-01T11:11:13;3.80;;;2.58;;
75682;SDS011;64295;44.772;39.872;2023-08-01T11:13:40;5.07;;;2.75;;
75682;SDS011;64295;44.772;39.872;2023-08-01T11:16:06;2.80;;;2.53;;
75682;SDS011;64295;44.772;39.872;2023-08-01T11:18:42;5.45;;;2.53;;
75682;SDS011;64295;44.772;39.872;2023-08-01T11:21:08;5.90;;;2.92;;
75682;SDS011;64295;44.772;39.872;2023-08-01T11:23:34;7.82;;;2.95;;
75682;SDS011;64295;44.772;39.872;2023-08-01T11:26:06;7.47;;;3.20;;
75682;SDS011;64295;44.772;39.872;2023-08-01T11:28:34;7.80;;;2.70;;
75682;SDS011;64295;44.772;39.872;2023-08-01T11:31:01;3.63;;;2.50;;
75682;SDS011;64295;44.772;39.872;2023-08-01T11:36:01;4.65;;;2.80;;
75682;SDS011;64295;44.772;39.872;2023-08-01T11:38:29;2.97;;;2.33;;
75682;SDS011;64295;44.772;39.872;2023-08-01T11:40:58;3.60;;;2.72;;
75682;SDS011;64295;44.772;39.872;2023-08-01T11:43:24;4.82;;;3.15;;
75682;SDS011;64295;44.772;39.872;2023-08-01T11:45:54;6.47;;;2.88;;
75682;SDS011;64295;44.772;39.872;2023-08-01T11:48:21;3.78;;;3.13;;
75682;SDS011;64295;44.772;39.872;2023-08-01T11:50:49;5.57;;;3.03;;
75682;SDS011;64295;44.772;39.872;2023-08-01T11:53:22;3.97;;;2.67;;
75682;SDS011;64295;44.772;39.872;2023-08-01T11:55:49;4.82;;;2.90;;
75682;SDS011;64295;44.772;39.872;2023-08-01T11:58:36;3.90;;;2.95;;
75682;SDS011;64295;44.772;39.872;2023-08-01T12:01:06;4.43;;;3.13;;
75682;SDS011;64295;44.772;39.872;2023-08-01T12:03:47;11.95;;;3.80;;
75682;SDS011;64295;44.772;39.872;2023-08-01T12:06:21;4.57;;;2.83;;
75682;SDS011;64295;44.772;39.872;2023-08-01T12:08:50;4.60;;;3.05;;
75682;SDS011;64295;44.772;39.872;2023-08-01T12:11:17;5.53;;;3.10;;
75682;SDS011;64295;44.772;39.872;2023-08-01T12:13:43;4.25;;;2.65;;
75682;SDS011;64295;44.772;39.872;2023-08-01T12:16:09;6.68;;;3.45;;
75682;SDS011;64295;44.772;39.872;2023-08-01T12:18:35;5.00;;;3.58;;
75682;SDS011;64295;44.772;39.872;2023-08-01T12:23:38;5.70;;;3.22;;
75682;SDS011;64295;44.772;39.872;2023-08-01T12:26:07;6.43;;;3.33;;
75682;SDS011;64295;44.772;39.872;2023-08-01T12:28:36;3.85;;;2.83;;
75682;SDS011;64295;44.772;39.872;2023-08-01T12:31:23;3.78;;;3.15;;
75682;SDS011;64295;44.772;39.872;2023-08-01T12:33:52;10.55;;;2.88;;
75682;SDS011;64295;44.772;39.872;2023-08-01T12:36:21;3.45;;;2.85;;
75682;SDS011;64295;44.772;39.872;2023-08-01T12:38:47;10.02;;;3.33;;
75682;SDS011;64295;44.772;39.872;2023-08-01T12:41:13;4.80;;;2.90;;
75682;SDS011;64295;44.772;39.872;2023-08-01T12:43:39;5.85;;;3.15;;
75682;SDS011;64295;44.772;39.872;2023-08-01T12:46:05;5.53;;;2.85;;
75682;SDS011;64295;44.772;39.872;2023-08-01T12:48:30;4.50;;;2.97;;
75682;SDS011;64295;44.772;39.872;2023-08-01T12:50:56;3.90;;;2.78;;
75682;SDS011;64295;44.772;39.872;2023-08-01T12:53:23;6.30;;;3.20;;
75682;SDS011;64295;44.772;39.872;2023-08-01T12:55:52;4.25;;;3.42;;
75682;SDS011;64295;44.772;39.872;2023-08-01T12:58:18;4.25;;;2.63;;
75682;SDS011;64295;44.772;39.872;2023-08-01T13:00:44;5.45;;;2.75;;
75682;SDS011;64295;44.772;39.872;2023-08-01T13:03:11;6.47;;;2.95;;
75682;SDS011;64295;44.772;39.872;2023-08-01T13:05:38;5.43;;;2.83;;
75682;SDS011;64295;44.772;39.872;2023-08-01T13:08:08;3.53;;;3.00;;
75682;SDS011;64295;44.772;39.872;2023-08-01T13:10:35;5.43;;;2.72;;
75682;SDS011;64295;44.772;39.872;2023-08-01T13:13:07;5.25;;;3.47;;
75682;SDS011;64295;44.772;39.872;2023-08-01T13:15:35;4.43;;;2.88;;
75682;SDS011;64295;44.772;39.872;2023-08-01T13:18:15;4.20;;;2.78;;
75682;SDS011;64295;44.772;39.872;2023-08-01T13:20:40;3.85;;;2.50;;
75682;SDS011;64295;44.772;39.872;2023-08-01T13:23:14;3.20;;;2.33;;
75682;SDS011;64295;44.772;39.872;2023-08-01T13:25:50;3.97;;;2.70;;
75682;SDS011;64295;44.772;39.872;2023-08-01T13:28:16;5.03;;;2.75;;
75682;SDS011;64295;44.772;39.872;2023-08-01T13:30:42;5.90;;;2.85;;
75682;SDS011;64295;44.772;39.872;2023-08-01T13:33:10;2.72;;;2.20;;
75682;SDS011;64295;44.772;39.872;2023-08-01T13:35:36;4.03;;;2.40;;
75682;SDS011;64295;44.772;39.872;2023-08-01T13:38:02;6.78;;;2.38;;
75682;SDS011;64295;44.772;39.872;2023-08-01T13:40:32;5.28;;;2.75;;
75682;SDS011;64295;44.772;39.872;2023-08-01T13:43:18;4.18;;;2.58;;
75682;SDS011;64295;44.772;39.872;2023-08-01T13:46:13;4.13;;;2.47;;
75682;SDS011;64295;44.772;39.872;2023-08-01T13:51:19;7.00;;;2.72;;
75682;SDS011;64295;44.772;39.872;2023-08-01T13:53:45;3.88;;;2.72;;
75682;SDS011;64295;44.772;39.872;2023-08-01T13:56:11;5.25;;;2.67;;
75682;SDS011;64295;44.772;39.872;2023-08-01T13:58:38;3.28;;;2.30;;
75682;SDS011;64295;44.772;39.872;2023-08-01T14:01:05;4.53;;;2.45;;
75682;SDS011;64295;44.772;39.872;2023-08-01T14:03:35;5.22;;;2.58;;
75682;SDS011;64295;44.772;39.872;2023-08-01T14:06:06;3.92;;;2.70;;
75682;SDS011;64295;44.772;39.872;2023-08-01T14:08:33;3.80;;;2.53;;
75682;SDS011;64295;44.772;39.872;2023-08-01T14:11:00;4.38;;;2.65;;
75682;SDS011;64295;44.772;39.872;2023-08-01T14:13:31;3.65;;;2.30;;
75682;SDS011;64295;44.772;39.872;2023-08-01T14:15:57;6.22;;;2.63;;
75682;SDS011;64295;44.772;39.872;2023-08-01T14:18:23;3.15;;;2.42;;
75682;SDS011;64295;44.772;39.872;2023-08-01T14:20:49;4.22;;;2.45;;
75682;SDS011;64295;44.772;39.872;2023-08-01T14:23:15;4.93;;;2.70;;
75682;SDS011;64295;44.772;39.872;2023-08-01T14:25:41;5.50;;;2.30;;
75682;SDS011;64295;44.772;39.872;2023-08-01T14:28:07;3.95;;;2.53;;
75682;SDS011;64295;44.772;39.872;2023-08-01T14:30:33;4.28;;;2.63;;
75682;SDS011;64295;44.772;39.872;2023-08-01T14:33:02;5.63;;;3.30;;
75682;SDS011;64295;44.772;39.872;2023-08-01T14:35:30;4.45;;;2.65;;
75682;SDS011;64295;44.772;39.872;2023-08-01T14:37:57;3.65;;;2.60;;
75682;SDS011;64295;44.772;39.872;2023-08-01T14:40:23;3.47;;;2.30;;
75682;SDS011;64295;44.772;39.872;2023-08-01T14:42:49;5.60;;;2.58;;
75682;SDS011;64295;44.772;39.872;2023-08-01T14:45:15;4.40;;;2.88;;
75682;SDS011;64295;44.772;39.872;2023-08-01T14:47:41;3.08;;;2.33;;
75682;SDS011;64295;44.772;39.872;2023-08-01T14:50:09;4.50;;;2.20;;
75682;SDS011;64295;44.772;39.872;2023-08-01T14:52:35;3.88;;;2.50;;